createdAt,value
2023-04-22T00:01:12.858Z,6.78
2023-04-22T00:03:42.230Z,7.97
2023-04-22T00:06:10.344Z,7.55
2023-04-22T00:08:38.218Z,6.65
2023-04-22T00:11:06.649Z,7.03
2023-04-22T00:13:34.597Z,7.03
2023-04-22T00:16:02.495Z,7.68
2023-04-22T00:18:30.319Z,6.85
2023-04-22T00:20:59.555Z,7.72
2023-04-22T00:23:27.408Z,6.00
2023-04-22T00:25:55.206Z,6.25
2023-04-22T00:28:23.014Z,6.90
2023-04-22T00:30:50.838Z,7.43
2023-04-22T00:33:18.660Z,6.32
2023-04-22T00:35:47.777Z,6.68
2023-04-22T00:38:17.119Z,6.38
2023-04-22T00:40:44.900Z,5.63
2023-04-22T00:43:14.909Z,6.07
2023-04-22T00:45:44.280Z,6.18
2023-04-22T00:48:13.999Z,5.30
2023-04-22T00:50:42.017Z,5.63
2023-04-22T00:53:09.854Z,5.32
2023-04-22T00:55:39.189Z,6.53
2023-04-22T00:58:07.931Z,5.68
2023-04-22T01:00:36.123Z,5.35
2023-04-22T01:03:04.916Z,5.32
2023-04-22T01:05:33.228Z,5.70
2023-04-22T01:08:01.537Z,5.45
2023-04-22T01:10:30.400Z,5.30
2023-04-22T01:12:59.661Z,5.47
2023-04-22T01:15:28.671Z,6.35
2023-04-22T01:17:57.345Z,7.13
2023-04-22T01:20:28.124Z,4.85
2023-04-22T01:22:57.482Z,5.10
2023-04-22T01:25:27.516Z,4.72
2023-04-22T01:27:56.341Z,5.00
2023-04-22T01:30:24.337Z,6.25
2023-04-22T01:32:52.402Z,4.80
2023-04-22T01:35:21.959Z,5.05
2023-04-22T01:37:50.023Z,5.00
2023-04-22T01:40:19.835Z,5.05
2023-04-22T01:42:49.947Z,5.00
2023-04-22T01:45:18.467Z,6.05
2023-04-22T01:47:46.336Z,5.10
2023-04-22T01:50:14.485Z,5.32
2023-04-22T01:52:42.287Z,4.82
2023-04-22T01:55:11.327Z,4.78
2023-04-22T01:57:39.129Z,4.88
2023-04-22T02:00:10.252Z,5.20
2023-04-22T02:02:40.883Z,5.20
2023-04-22T02:05:09.940Z,5.28
2023-04-22T02:07:37.779Z,5.18
2023-04-22T02:10:06.441Z,3.92
2023-04-22T02:12:34.511Z,4.97
2023-04-22T02:15:02.324Z,4.88
2023-04-22T02:17:31.479Z,4.47
2023-04-22T02:19:59.509Z,5.05
2023-04-22T02:22:29.479Z,5.35
2023-04-22T02:24:57.329Z,3.90
2023-04-22T02:27:25.104Z,4.40
2023-04-22T02:29:53.212Z,3.88
2023-04-22T02:32:21.080Z,4.22
2023-04-22T02:34:50.721Z,4.28
2023-04-22T02:37:19.070Z,4.88
2023-04-22T02:39:47.021Z,4.60
2023-04-22T02:42:14.827Z,4.53
2023-04-22T02:44:42.634Z,5.32
2023-04-22T02:47:13.849Z,5.07
2023-04-22T02:49:41.989Z,4.45
2023-04-22T02:52:12.000Z,4.57
2023-04-22T02:54:39.828Z,4.88
2023-04-22T02:57:07.891Z,4.55
2023-04-22T02:59:36.185Z,4.35
2023-04-22T03:02:06.913Z,4.60
2023-04-22T03:04:49.518Z,4.53
2023-04-22T03:07:18.870Z,5.25
2023-04-22T03:09:46.748Z,4.88
2023-04-22T03:12:14.604Z,4.38
2023-04-22T03:14:42.558Z,4.88
2023-04-22T03:17:10.689Z,3.70
2023-04-22T03:19:39.330Z,4.57
2023-04-22T03:22:07.544Z,4.97
2023-04-22T03:24:36.739Z,3.92
2023-04-22T03:27:07.459Z,4.57
2023-04-22T03:29:35.728Z,5.57
2023-04-22T03:32:03.665Z,3.88
2023-04-22T03:34:31.614Z,4.85
2023-04-22T03:36:59.562Z,4.47
2023-04-22T03:39:27.911Z,4.93
2023-04-22T03:41:57.127Z,3.83
2023-04-22T03:44:25.266Z,4.35
2023-04-22T03:46:53.584Z,4.18
2023-04-22T03:49:26.091Z,4.50
2023-04-22T03:51:57.252Z,4.45
2023-04-22T03:54:26.410Z,3.90
2023-04-22T03:56:54.424Z,3.90
2023-04-22T03:59:25.453Z,4.22
2023-04-22T04:01:54.161Z,6.53
2023-04-22T04:04:26.725Z,4.25
2023-04-22T04:07:01.601Z,4.32
2023-04-22T04:09:30.015Z,3.75
2023-04-22T04:11:58.102Z,4.63
2023-04-22T04:14:30.739Z,4.63
2023-04-22T04:16:58.980Z,4.40
2023-04-22T04:19:29.906Z,4.78
2023-04-22T04:21:57.969Z,4.07
2023-04-22T04:24:28.289Z,5.18
2023-04-22T04:27:03.136Z,4.72
2023-04-22T04:29:39.839Z,4.57
2023-04-22T04:32:14.236Z,5.07
2023-04-22T04:34:43.685Z,4.05
2023-04-22T04:37:12.719Z,3.65
2023-04-22T04:39:59.358Z,5.47
2023-04-22T04:42:34.446Z,4.25
2023-04-22T04:45:09.365Z,3.42
2023-04-22T04:47:37.348Z,3.72
2023-04-22T04:50:15.720Z,4.30
2023-04-22T04:52:44.874Z,4.57
2023-04-22T04:55:12.749Z,4.18
2023-04-22T04:57:41.178Z,3.88
2023-04-22T05:00:11.464Z,4.85
2023-04-22T05:02:39.472Z,4.03
2023-04-22T05:05:08.576Z,3.47
2023-04-22T05:07:38.119Z,3.58
2023-04-22T05:10:08.759Z,3.97
2023-04-22T05:12:37.302Z,4.50
2023-04-22T05:15:08.782Z,4.82
2023-04-22T05:17:39.587Z,4.40
2023-04-22T05:20:08.729Z,3.83
2023-04-22T05:22:37.454Z,4.15
2023-04-22T05:25:06.392Z,3.50
2023-04-22T05:27:34.709Z,3.35
2023-04-22T05:30:04.173Z,3.50
2023-04-22T05:32:34.354Z,4.57
2023-04-22T05:35:04.080Z,5.03
2023-04-22T05:37:32.277Z,3.60
2023-04-22T05:40:00.184Z,4.30
2023-04-22T05:42:28.494Z,3.75
2023-04-22T05:44:56.352Z,3.50
2023-04-22T05:47:24.322Z,4.50
2023-04-22T05:49:52.666Z,3.33
2023-04-22T05:52:31.972Z,3.38
2023-04-22T05:55:07.875Z,4.47
2023-04-22T05:57:35.856Z,3.97
2023-04-22T06:00:07.638Z,3.45
2023-04-22T06:02:41.045Z,3.83
2023-04-22T06:05:10.203Z,4.25
2023-04-22T06:07:41.007Z,3.72
2023-04-22T06:10:10.386Z,3.50
2023-04-22T06:12:38.231Z,4.20
2023-04-22T06:15:07.309Z,3.50
2023-04-22T06:17:35.560Z,3.10
2023-04-22T06:20:03.704Z,3.53
2023-04-22T06:22:32.694Z,4.13
2023-04-22T06:25:01.938Z,3.90
2023-04-22T06:27:29.804Z,3.17
2023-04-22T06:29:57.840Z,3.75
2023-04-22T06:32:25.825Z,6.65
2023-04-22T06:34:53.649Z,3.97
2023-04-22T06:37:21.571Z,3.72
2023-04-22T06:39:49.736Z,3.58
2023-04-22T06:42:39.071Z,3.47
2023-04-22T06:45:26.135Z,3.60
2023-04-22T06:48:11.106Z,2.72
2023-04-22T06:50:59.269Z,3.50
2023-04-22T06:53:27.736Z,2.92
2023-04-22T06:55:55.647Z,2.80
2023-04-22T06:58:25.017Z,3.92
2023-04-22T07:00:52.904Z,2.97
2023-04-22T07:03:20.988Z,3.88
2023-04-22T07:05:59.604Z,4.03
2023-04-22T07:08:27.801Z,2.47
2023-04-22T07:10:57.795Z,2.90
2023-04-22T07:13:36.875Z,2.65
2023-04-22T07:16:04.984Z,4.45
2023-04-22T07:18:32.951Z,3.70
2023-04-22T07:21:00.860Z,3.22
2023-04-22T07:23:28.706Z,3.05
2023-04-22T07:25:56.790Z,3.33
2023-04-22T07:28:24.738Z,2.90
2023-04-22T07:30:55.430Z,3.30
2023-04-22T07:33:23.467Z,3.05
2023-04-22T07:35:51.424Z,3.65
2023-04-22T07:38:19.329Z,3.40
2023-04-22T07:40:47.103Z,2.80
2023-04-22T07:43:15.077Z,3.58
2023-04-22T07:45:42.988Z,2.85
2023-04-22T07:48:12.292Z,2.92
2023-04-22T07:50:40.429Z,3.35
2023-04-22T07:53:10.256Z,3.40
2023-04-22T07:55:38.295Z,3.45
2023-04-22T07:58:06.849Z,2.90
2023-04-22T08:00:35.625Z,3.50
2023-04-22T08:03:04.108Z,3.58
2023-04-22T08:05:33.560Z,2.67
2023-04-22T08:08:01.485Z,3.63
2023-04-22T08:10:29.365Z,2.80
2023-04-22T08:12:57.235Z,3.42
2023-04-22T08:15:25.522Z,3.78
2023-04-22T08:17:53.415Z,3.00
2023-04-22T08:20:21.508Z,2.75
2023-04-22T08:22:57.101Z,3.38
2023-04-22T08:25:25.043Z,3.72
2023-04-22T08:27:52.902Z,2.78
2023-04-22T08:30:21.467Z,2.50
2023-04-22T08:32:49.430Z,3.65
2023-04-22T08:35:17.403Z,3.83
2023-04-22T08:37:45.248Z,3.70
2023-04-22T08:40:14.868Z,4.45
2023-04-22T08:42:44.845Z,3.45
2023-04-22T08:45:14.466Z,2.83
2023-04-22T08:47:43.783Z,3.25
2023-04-22T08:50:12.348Z,3.10
2023-04-22T08:52:40.216Z,2.67
2023-04-22T08:55:09.167Z,2.95
2023-04-22T08:57:40.207Z,3.10
2023-04-22T09:00:09.950Z,4.05
2023-04-22T09:02:39.367Z,2.97
2023-04-22T09:05:10.156Z,3.10
2023-04-22T09:07:39.649Z,3.22
2023-04-22T09:10:08.974Z,3.33
2023-04-22T09:12:39.788Z,2.40
2023-04-22T09:15:09.327Z,2.85
2023-04-22T09:17:39.261Z,2.30
2023-04-22T09:20:08.845Z,2.17
2023-04-22T09:22:41.785Z,3.15
2023-04-22T09:25:17.158Z,2.65
2023-04-22T09:27:49.800Z,3.88
2023-04-22T09:30:20.041Z,2.33
2023-04-22T09:32:55.346Z,3.10
2023-04-22T09:35:31.049Z,3.25
2023-04-22T09:37:59.961Z,3.30
2023-04-22T09:40:28.668Z,3.10
2023-04-22T09:42:59.883Z,3.58
2023-04-22T09:45:41.899Z,3.38
2023-04-22T09:48:11.899Z,3.65
2023-04-22T09:50:41.153Z,2.80
2023-04-22T09:53:11.358Z,2.90
2023-04-22T09:55:42.576Z,2.83
2023-04-22T09:58:13.047Z,3.28
2023-04-22T10:00:43.507Z,3.00
2023-04-22T10:03:11.569Z,3.00
2023-04-22T10:05:41.011Z,3.78
2023-04-22T10:08:10.772Z,2.08
2023-04-22T10:10:39.417Z,3.17
2023-04-22T10:13:08.047Z,2.60
2023-04-22T10:15:40.693Z,2.78
2023-04-22T10:18:11.835Z,2.65
2023-04-22T10:20:43.251Z,3.78
2023-04-22T10:23:15.743Z,3.25
2023-04-22T10:28:14.396Z,2.63
2023-04-22T10:30:43.767Z,2.45
2023-04-22T10:33:39.794Z,3.03
2023-04-22T10:36:16.806Z,3.30
2023-04-22T10:39:18.405Z,2.53
2023-04-22T10:41:53.582Z,2.65
2023-04-22T10:44:22.894Z,2.70
2023-04-22T10:47:00.205Z,2.72
2023-04-22T10:49:31.887Z,3.15
2023-04-22T10:52:01.324Z,3.08
2023-04-22T10:54:57.735Z,2.35
2023-04-22T10:57:36.193Z,2.45
2023-04-22T11:00:22.259Z,2.70
2023-04-22T11:02:56.002Z,3.47
2023-04-22T11:05:27.180Z,3.20
2023-04-22T11:07:57.056Z,3.05
2023-04-22T11:10:44.652Z,2.70
2023-04-22T11:13:15.022Z,2.65
2023-04-22T11:15:44.478Z,3.47
2023-04-22T11:18:16.351Z,2.47
2023-04-22T11:20:44.174Z,3.75
2023-04-22T11:23:12.108Z,2.63
2023-04-22T11:25:39.954Z,2.55
2023-04-22T11:28:07.835Z,3.63
2023-04-22T11:30:35.823Z,2.90
2023-04-22T11:33:03.815Z,2.80
2023-04-22T11:35:34.528Z,2.80
2023-04-22T11:38:04.340Z,3.97
2023-04-22T11:40:36.043Z,2.85
2023-04-22T11:43:07.814Z,2.70
2023-04-22T11:45:37.354Z,2.60
2023-04-22T11:48:07.104Z,3.40
2023-04-22T11:50:38.283Z,2.60
2023-04-22T11:53:14.249Z,2.90
2023-04-22T11:55:43.446Z,3.47
2023-04-22T11:58:12.935Z,2.67
2023-04-22T12:00:43.227Z,3.05
2023-04-22T12:03:15.859Z,2.85
2023-04-22T12:05:47.351Z,2.45
2023-04-22T12:08:17.414Z,4.80
2023-04-22T12:10:47.026Z,3.10
2023-04-22T12:13:20.888Z,3.05
2023-04-22T12:15:49.774Z,4.10
2023-04-22T12:18:17.575Z,3.70
2023-04-22T12:20:46.757Z,3.53
2023-04-22T12:23:15.831Z,3.30
2023-04-22T12:25:44.763Z,1.73
2023-04-22T12:28:13.429Z,3.33
2023-04-22T12:30:41.294Z,4.10
2023-04-22T12:33:10.126Z,3.10
2023-04-22T12:35:38.364Z,3.25
2023-04-22T12:38:07.611Z,2.80
2023-04-22T12:40:35.526Z,2.60
2023-04-22T12:43:06.059Z,3.25
2023-04-22T12:45:34.143Z,3.40
2023-04-22T12:48:02.017Z,4.10
2023-04-22T12:50:30.101Z,3.15
2023-04-22T12:52:58.017Z,3.08
2023-04-22T12:55:27.540Z,4.25
2023-04-22T12:57:55.586Z,2.40
2023-04-22T13:00:25.437Z,2.80
2023-04-22T13:02:53.443Z,2.72
2023-04-22T13:05:21.719Z,2.45
2023-04-22T13:07:56.484Z,3.42
2023-04-22T13:10:33.402Z,3.97
2023-04-22T13:13:16.978Z,3.10
2023-04-22T13:15:46.209Z,3.30
2023-04-22T13:18:14.088Z,3.00
2023-04-22T13:20:42.706Z,4.40
2023-04-22T13:23:10.789Z,2.92
2023-04-22T13:25:40.298Z,3.30
2023-04-22T13:28:08.111Z,2.90
2023-04-22T13:30:35.997Z,2.72
2023-04-22T13:33:03.847Z,2.70
2023-04-22T13:35:32.026Z,2.97
2023-04-22T13:38:00.048Z,2.60
2023-04-22T13:40:28.301Z,1.98
2023-04-22T13:42:57.480Z,2.53
2023-04-22T13:45:26.142Z,2.00
2023-04-22T13:47:55.098Z,2.95
2023-04-22T13:50:23.820Z,2.28
2023-04-22T13:52:52.054Z,2.08
2023-04-22T13:55:19.966Z,2.58
2023-04-22T13:57:47.949Z,2.55
2023-04-22T14:00:17.731Z,3.20
2023-04-22T14:02:46.409Z,3.22
2023-04-22T14:05:14.390Z,3.08
2023-04-22T14:07:42.254Z,2.72
2023-04-22T14:10:12.117Z,4.68
2023-04-22T14:12:40.838Z,2.72
2023-04-22T14:15:10.880Z,2.85
2023-04-22T14:17:40.898Z,3.67
2023-04-22T14:20:10.213Z,2.80
2023-04-22T14:22:38.414Z,2.47
2023-04-22T14:25:07.332Z,2.95
2023-04-22T14:27:35.487Z,2.40
2023-04-22T14:30:04.870Z,3.92
2023-04-22T14:32:33.223Z,3.35
2023-04-22T14:35:02.454Z,3.10
2023-04-22T14:37:31.711Z,3.20
2023-04-22T14:39:59.632Z,4.38
2023-04-22T14:42:28.271Z,3.40
2023-04-22T14:44:56.096Z,3.28
2023-04-22T14:47:24.528Z,1.85
2023-04-22T14:49:53.613Z,3.63
2023-04-22T14:52:23.068Z,2.10
2023-04-22T14:54:52.100Z,3.15
2023-04-22T14:57:20.389Z,2.80
2023-04-22T14:59:48.173Z,3.88
2023-04-22T15:02:16.784Z,3.05
2023-04-22T15:04:44.940Z,3.30
2023-04-22T15:07:12.792Z,2.45
2023-04-22T15:09:42.318Z,3.17
2023-04-22T15:12:10.320Z,2.50
2023-04-22T15:14:38.564Z,2.33
2023-04-22T15:17:07.069Z,2.80
2023-04-22T15:19:35.077Z,1.90
2023-04-22T15:22:03.058Z,3.25
2023-04-22T15:24:30.942Z,2.70
2023-04-22T15:27:00.646Z,3.58
2023-04-22T15:29:29.005Z,2.85
2023-04-22T15:31:57.807Z,2.72
2023-04-22T15:34:25.983Z,2.22
2023-04-22T15:36:54.349Z,2.30
2023-04-22T15:39:22.159Z,2.20
2023-04-22T15:41:50.106Z,3.10
2023-04-22T15:44:19.448Z,2.17
2023-04-22T15:46:47.507Z,2.08
2023-04-22T15:49:15.765Z,2.53
2023-04-22T15:51:43.651Z,2.30
2023-04-22T15:54:11.616Z,2.03
2023-04-22T15:56:39.492Z,2.58
2023-04-22T15:59:07.268Z,2.03
2023-04-22T16:01:36.601Z,2.17
2023-04-22T16:04:05.308Z,2.80
2023-04-22T16:06:33.265Z,2.03
2023-04-22T16:09:01.028Z,1.55
2023-04-22T16:11:30.400Z,2.35
2023-04-22T16:13:58.297Z,2.35
2023-04-22T16:16:27.573Z,1.80
2023-04-22T16:18:56.958Z,2.17
2023-04-22T16:21:25.132Z,3.15
2023-04-22T16:23:52.962Z,2.30
2023-04-22T16:26:20.824Z,3.20
2023-04-22T16:28:48.705Z,2.50
2023-04-22T16:31:18.142Z,2.22
2023-04-22T16:33:46.584Z,3.00
2023-04-22T16:36:15.725Z,2.45
2023-04-22T16:38:43.502Z,3.47
2023-04-22T16:41:11.664Z,2.35
2023-04-22T16:43:41.024Z,2.33
2023-04-22T16:46:09.289Z,3.40
2023-04-22T16:48:37.293Z,3.53
2023-04-22T16:51:05.972Z,3.47
2023-04-22T16:53:35.207Z,2.70
2023-04-22T16:56:02.988Z,4.40
2023-04-22T16:58:30.891Z,4.22
2023-04-22T17:00:58.832Z,3.47
2023-04-22T17:03:27.131Z,3.17
2023-04-22T17:05:55.073Z,2.80
2023-04-22T17:08:22.846Z,3.08
2023-04-22T17:10:52.584Z,3.03
2023-04-22T17:13:20.828Z,3.03
2023-04-22T17:15:48.705Z,2.67
2023-04-22T17:18:16.599Z,3.20
2023-04-22T17:20:44.527Z,3.58
2023-04-22T17:23:12.511Z,3.97
2023-04-22T17:25:40.343Z,3.78
2023-04-22T17:28:11.326Z,3.67
2023-04-22T17:30:39.621Z,3.40
2023-04-22T17:33:07.496Z,4.90
2023-04-22T17:35:35.379Z,4.03
2023-04-22T17:38:03.199Z,4.97
2023-04-22T17:40:31.259Z,4.55
2023-04-22T17:42:59.064Z,4.28
2023-04-22T17:45:28.345Z,6.00
2023-04-22T17:47:56.162Z,3.85
2023-04-22T17:50:24.217Z,4.43
2023-04-22T17:52:52.159Z,3.33
2023-04-22T17:55:20.261Z,4.13
2023-04-22T17:57:48.037Z,3.45
2023-04-22T18:00:17.992Z,4.10
2023-04-22T18:02:47.674Z,3.72
2023-04-22T18:05:15.673Z,4.43
2023-04-22T18:07:43.504Z,4.05
2023-04-22T18:10:12.698Z,4.35
2023-04-22T18:12:41.341Z,4.03
2023-04-22T18:15:09.845Z,4.57
2023-04-22T18:17:37.944Z,4.15
2023-04-22T18:20:17.214Z,3.22
2023-04-22T18:22:46.655Z,3.25
2023-04-22T18:25:15.117Z,4.32
2023-04-22T18:27:42.978Z,3.28
2023-04-22T18:30:11.363Z,3.10
2023-04-22T18:32:39.784Z,3.00
2023-04-22T18:35:09.865Z,3.63
2023-04-22T18:37:37.712Z,3.17
2023-04-22T18:40:07.216Z,4.00
2023-04-22T18:42:35.306Z,4.35
2023-04-22T18:45:04.904Z,4.57
2023-04-22T18:47:33.283Z,3.60
2023-04-22T18:50:01.278Z,2.88
2023-04-22T18:52:30.601Z,3.80
2023-04-22T18:54:58.408Z,4.07
2023-04-22T18:57:26.447Z,2.97
2023-04-22T18:59:54.991Z,4.10
2023-04-22T19:02:23.158Z,3.63
2023-04-22T19:04:51.303Z,3.35
2023-04-22T19:07:19.342Z,3.30
2023-04-22T19:09:48.611Z,3.53
2023-04-22T19:12:18.986Z,2.97
2023-04-22T19:14:48.197Z,2.75
2023-04-22T19:17:16.055Z,2.65
2023-04-22T19:19:45.320Z,3.45
2023-04-22T19:22:13.718Z,3.38
2023-04-22T19:24:41.605Z,3.55
2023-04-22T19:27:12.451Z,4.30
2023-04-22T19:29:41.618Z,3.40
2023-04-22T19:32:10.894Z,3.92
2023-04-22T19:34:39.140Z,3.90
2023-04-22T19:37:08.186Z,4.22
2023-04-22T19:39:36.671Z,4.93
2023-04-22T19:42:04.648Z,3.92
2023-04-22T19:44:34.078Z,5.63
2023-04-22T19:47:01.982Z,5.15
2023-04-22T19:49:31.766Z,4.70
2023-04-22T19:52:02.792Z,5.22
2023-04-22T19:54:31.256Z,4.78
2023-04-22T19:56:59.498Z,5.05
2023-04-22T19:59:31.620Z,5.85
2023-04-22T20:02:01.193Z,5.78
2023-04-22T20:04:29.801Z,4.72
2023-04-22T20:07:01.443Z,4.80
2023-04-22T20:12:01.261Z,5.63
2023-04-22T20:14:29.599Z,4.68
2023-04-22T20:16:57.730Z,5.05
2023-04-22T20:19:27.664Z,4.82
2023-04-22T20:21:58.628Z,5.45
2023-04-22T20:24:29.860Z,5.55
2023-04-22T20:26:58.478Z,5.55
2023-04-22T20:29:26.946Z,6.13
2023-04-22T20:31:56.464Z,5.50
2023-04-22T20:34:26.762Z,5.68
2023-04-22T20:36:54.853Z,5.80
2023-04-22T20:39:23.856Z,6.18
2023-04-22T20:41:55.224Z,5.57
2023-04-22T20:44:23.211Z,5.43
2023-04-22T20:46:51.239Z,6.03
2023-04-22T20:49:19.270Z,6.03
2023-04-22T20:51:48.627Z,5.50
2023-04-22T20:54:27.730Z,5.88
2023-04-22T20:56:57.760Z,6.65
2023-04-22T20:59:25.790Z,5.93
2023-04-22T21:01:54.626Z,6.13
2023-04-22T21:04:23.962Z,5.80
2023-04-22T21:06:54.604Z,5.45
2023-04-22T21:09:24.822Z,6.30
2023-04-22T21:11:54.570Z,5.40
2023-04-22T21:14:26.186Z,6.13
2023-04-22T21:16:59.064Z,5.57
2023-04-22T21:19:27.401Z,5.90
2023-04-22T21:21:59.384Z,6.22
2023-04-22T21:24:28.458Z,7.25
2023-04-22T21:26:56.443Z,6.75
2023-04-22T21:29:24.851Z,7.05
2023-04-22T21:32:07.265Z,6.45
2023-04-22T21:34:36.633Z,7.95
2023-04-22T21:37:06.715Z,7.47
2023-04-22T21:39:34.903Z,6.68
2023-04-22T21:42:07.451Z,9.15
2023-04-22T21:47:04.222Z,7.90
2023-04-22T21:49:32.282Z,7.30
2023-04-22T21:52:01.007Z,7.20
2023-04-22T21:54:30.702Z,6.97
2023-04-22T21:56:58.698Z,7.63
2023-04-22T21:59:26.568Z,7.97
2023-04-22T22:01:54.494Z,7.72
2023-04-22T22:04:22.533Z,6.55
2023-04-22T22:06:50.596Z,6.75
2023-04-22T22:09:18.717Z,7.70
2023-04-22T22:11:47.992Z,7.35
2023-04-22T22:14:16.114Z,7.55
2023-04-22T22:16:44.494Z,8.18
2023-04-22T22:19:13.942Z,7.22
2023-04-22T22:21:41.725Z,8.68
2023-04-22T22:24:10.543Z,8.20
2023-04-22T22:26:41.018Z,8.38
2023-04-22T22:29:15.367Z,8.68
2023-04-22T22:31:43.487Z,7.43
2023-04-22T22:34:11.635Z,7.03
2023-04-22T22:36:39.508Z,7.47
2023-04-22T22:39:10.274Z,7.40
2023-04-22T22:41:38.152Z,7.10
2023-04-22T22:44:06.019Z,8.32
2023-04-22T22:46:35.252Z,7.45
2023-04-22T22:49:03.444Z,8.35
2023-04-22T22:51:32.708Z,7.72
2023-04-22T22:54:01.420Z,8.15
2023-04-22T22:56:29.269Z,8.63
2023-04-22T22:58:57.073Z,7.97
2023-04-22T23:01:25.081Z,7.93
2023-04-22T23:03:54.390Z,7.65
2023-04-22T23:06:22.313Z,8.82
2023-04-22T23:08:50.177Z,8.52
2023-04-22T23:11:18.042Z,8.02
2023-04-22T23:13:46.439Z,7.60
2023-04-22T23:16:14.452Z,10.13
2023-04-22T23:18:42.645Z,9.95
2023-04-22T23:21:12.713Z,8.63
2023-04-22T23:23:42.215Z,8.82
2023-04-22T23:26:10.850Z,8.48
2023-04-22T23:28:39.122Z,9.15
2023-04-22T23:31:08.071Z,9.70
2023-04-22T23:33:39.954Z,8.98
2023-04-22T23:36:10.276Z,8.47
2023-04-22T23:38:39.515Z,8.77
2023-04-22T23:41:07.723Z,9.95
2023-04-22T23:43:35.673Z,9.50
2023-04-22T23:46:03.831Z,9.18
2023-04-22T23:48:31.746Z,10.68
2023-04-22T23:50:59.616Z,9.27
2023-04-22T23:53:27.401Z,9.50
2023-04-22T23:55:57.378Z,9.07
2023-04-22T23:58:25.575Z,9.75
